Flight Track Log - Related Links

Times and Time Zones

All times are in EDT time to prevent confusion due to time zone crossing. See the EZY6723 flight status page for this flight to view local times or setup timezone preferences in your user account.

Time Position Orientation Groundspeed Altitude Reporting Facility
EDT Latitude Longitude Course Direction KTS MPH feet Rate Location/Type
Thu 08:36:00 AM 54.0396 -5.0838 133° Southeast  Level Estimated
Thu 08:37:00 AM 53.9829 -4.9825 134° Southeast  Level Estimated
Thu 08:38:00 AM 53.9261 -4.8816 134° Southeast  Level Estimated
Thu 08:39:00 AM 53.8692 -4.7809 134° Southeast  Level Estimated
Thu 08:40:00 AM 53.8123 -4.6804 134° Southeast  Level Estimated
Thu 08:41:00 AM 53.7552 -4.5803 134° Southeast  Level Estimated
Thu 08:42:00 AM 53.6981 -4.4804 134° Southeast  Level Estimated
Thu 08:43:00 AM 53.6409 -4.3808 134° Southeast  Level Estimated
Thu 08:44:00 AM 53.5836 -4.2815 134° Southeast  Level Estimated
Thu 08:45:00 AM 53.5263 -4.1824 134° Southeast  Level Estimated
Thu 08:46:00 AM 53.4642 -4.0758 134° Southeast  Level Estimated
Thu 08:47:00 AM 53.4021 -3.9695 134° Southeast  Level Estimated
Thu 08:48:00 AM 53.3399 -3.8635 134° Southeast  Level Estimated
Thu 08:49:00 AM 53.2776 -3.7578 135° Southeast  Level Estimated
Thu 08:50:00 AM 53.2034 -3.6324 135° Southeast  Level Estimated
Thu 08:51:00 AM 53.1291 -3.5076 135° Southeast  Level Estimated
Thu 08:52:00 AM 53.0546 -3.3831 135° Southeast  Level Estimated
Thu 08:53:00 AM 52.9800 -3.2591 135° Southeast  Level Estimated
Thu 08:54:00 AM 52.9053 -3.1355 135° Southeast  Level Estimated
Thu 08:55:00 AM 52.8304 -3.0124 135° Southeast  Level Estimated
Thu 08:56:00 AM 52.7554 -2.8896 135° Southeast  Level Estimated
Thu 08:57:00 AM 52.6803 -2.7673 135° Southeast  Level Estimated
Thu 08:58:00 AM 52.6051 -2.6454 135° Southeast  Level Estimated
Thu 08:59:00 AM 52.5297 -2.5240 136° Southeast  Level Estimated
Thu 09:00:00 AM 52.4543 -2.4029 136° Southeast  Level Estimated
Thu 09:01:00 AM 52.3787 -2.2822 136° Southeast  Level Estimated
Thu 09:02:00 AM 52.3029 -2.1620 136° Southeast  Level Estimated
Thu 09:03:00 AM 52.2271 -2.0422 136° Southeast  Level Estimated
Thu 09:04:00 AM 52.1511 -1.9228 136° Southeast  Level Estimated
Thu 09:05:00 AM 52.0750 -1.8038 136° Southeast  Level Estimated
Thu 09:06:00 AM 51.9988 -1.6852 136° Southeast  Level Estimated
Thu 09:07:00 AM 51.9225 -1.5670 136° Southeast  Level Estimated
Thu 09:08:00 AM 51.8460 -1.4492 136° Southeast  Level Estimated
Thu 09:09:00 AM 51.7695 -1.3318 136° Southeast  Level Estimated
Thu 09:10:00 AM 51.6928 -1.2148 137° Southeast  Level Estimated
Thu 09:11:00 AM 51.6160 -1.0982 137° Southeast  Level Estimated
Thu 09:12:00 AM 51.5391 -0.9820 137° Southeast  Level Estimated
Thu 09:13:00 AM 51.4620 -0.8662 137° Southeast  Level Estimated
Thu 09:14:00 AM 51.3849 -0.7508 137° Southeast  Level Estimated
Thu 09:15:00 AM 51.3077 -0.6357 137° Southeast  Level Estimated
Thu 09:16:00 AM 51.2303 -0.5211 137° Southeast  Level Estimated
Thu 09:17:00 AM 51.1528 -0.4068 137° Southeast  Level Estimated
Thu 09:18:00 AM 51.0752 -0.2930 137° Southeast  Level Estimated
Thu 09:19:00 AM 50.9975 -0.1795 137° Southeast  Level Estimated
Thu 09:20:00 AM 50.9197 -0.0663 137° Southeast  Level Estimated
Thu 09:21:00 AM 50.8418 0.0464 138° Southeast  Level Estimated
Thu 09:22:00 AM 50.7638 0.1588 138° Southeast  Level Estimated
Thu 09:23:00 AM 50.6856 0.2708 138° Southeast  Level Estimated
Thu 09:24:00 AM 50.6074 0.3824 138° Southeast  Level Estimated
Thu 09:25:00 AM 50.5290 0.4936 138° Southeast  Level Estimated
Thu 09:26:00 AM 50.4506 0.6045 138° Southeast  Level Estimated
Thu 09:27:00 AM 50.3720 0.7150 138° Southeast  Level Estimated
Thu 09:28:00 AM 50.2934 0.8252 138° Southeast  Level Estimated
Thu 09:29:00 AM 50.2146 0.9349 138° Southeast  Level Estimated
Thu 09:30:00 AM 50.1357 1.0444 138° Southeast  Level Estimated
Thu 09:31:00 AM 50.0568 1.1534 138° Southeast  Level Estimated
Thu 09:32:00 AM 49.9777 1.2621 139° Southeast  Level Estimated
Thu 09:33:00 AM 49.8985 1.3705 139° Southeast  Level Estimated
Thu 09:34:00 AM 49.8193 1.4784 139° Southeast  Level Estimated
Thu 09:35:00 AM 49.7399 1.5861 139° Southeast  Level Estimated
Thu 09:36:00 AM 49.6604 1.6934 139° Southeast  Level Estimated
Thu 09:37:00 AM 49.5809 1.8003 139° Southeast  Level Estimated
Thu 09:38:00 AM 49.5012 1.9069 139° Southeast  Level Estimated
Thu 09:39:00 AM 49.4349 1.9952 139° Southeast  Level Estimated
Thu 09:40:00 AM 49.3685 2.0833 139° Southeast  Level Estimated
Thu 09:41:00 AM 49.3020 2.1712 139° Southeast  Level Estimated
Thu 09:42:00 AM 49.2355 2.2589 139° Southeast  Level Estimated
Thu 09:43:00 AM 49.1689 2.3463 139° Southeast  Level Estimated
Thu 09:44:00 AM 49.1023 2.4334 139° Southeast  Level Estimated
Thu 09:45:00 AM 49.0356 2.5204 139° Southeast  Level Estimated
Thu 09:46:00 AM 49.0128 2.5500 140° Southeast  Level Estimated
Thu 09:47:00 AM 49.0128 2.5500 180° South  Level Estimated
Thu 09:48:00 AM 49.0128 2.5500 180° South  Level Estimated
Thu 09:49:00 AM 49.0128 2.5500 180° South  Level Estimated
Thu 09:50:00 AM 49.0128 2.5500 180° South  Level Estimated
Thu 09:51:00 AM 49.0128 2.5500 180° South  Level Estimated
Thu 09:52:00 AM 49.0128 2.5500 180° South  Level Estimated
Thu 09:53:00 AM 49.0128 2.5500 180° South  Level Estimated
Thu 09:54:00 AM 49.0128 2.5500 180° South  Level Estimated
Thu 09:55:00 AM 49.0128 2.5500 180° South  Level Estimated
Thu 09:56:00 AM 49.0128 2.5500 180° South  Level Estimated
Thu 09:57:00 AM 49.0128 2.5500 180° South  Level Estimated
Thu 09:58:00 AM 49.0128 2.5500 180° South  Level Estimated
Thu 09:59:00 AM 49.0128 2.5500 180° South  Level Estimated
Thu 10:00:00 AM 49.0128 2.5500 180° South  Level Estimated
Thu 10:01:00 AM 49.0128 2.5500 180° South  Level Estimated
Thu 10:02:00 AM 49.0128 2.5500 180° South  Level Estimated
Thu 10:03:00 AM 49.0128 2.5500 180° South  Level Estimated
Thu 10:04:00 AM 49.0128 2.5500 180° South  Level Estimated
Thu 10:05:00 AM 49.0128 2.5500 180° South  Level Estimated
Thu 10:06:00 AM 49.0128 2.5500 180° South  Level Estimated
Thu 10:07:00 AM 49.0128 2.5500 180° South  Level Estimated
Thu 10:08:00 AM 49.0128 2.5500 180° South  Level Estimated
Thu 10:09:00 AM 49.0128 2.5500 180° South  Level Estimated
Thu 10:10:00 AM 49.0128 2.5500 180° South  Level Estimated

Login

Don't have an account? Register now (free) for customized features, flight alerts, and more!